Time;durP1;ratioP1;P1;durP2;ratioP2;P2;SDS_P1;SDS_P2;PMS_P1;PMS_P2;Temp;Humidity;BMP_temperature;BMP_pressure;BME280_temperature;BME280_humidity;BME280_pressure;Samples;Min_cycle;Max_cycle;Signal;HPM_P1;HPM_P2
2021/09/02 00:23:09;;;;;;;16.75;11.75;;;;;;;15.60;100.00;101016.66;2877650;81;21012;-70
2021/09/02 00:27:10;;;;;;;16.02;12.82;;;;;;;15.58;100.00;101019.98;2827528;84;21018;-77
2021/09/02 01:19:02;;;;;;;18.50;14.80;;;;;;;15.41;100.00;101041.96;2892616;80;21013;-72
2021/09/02 01:23:05;;;;;;;18.25;13.13;;;;;;;15.39;100.00;101049.30;2764487;86;21037;-72
2021/09/02 01:27:07;;;;;;;14.85;13.32;;;;;;;15.34;100.00;101045.36;2764592;86;21024;-72
2021/09/02 01:31:58;;;;;;;18.23;12.58;;;;;;;15.22;100.00;101045.95;2764500;86;21013;-72
2021/09/02 01:36:00;;;;;;;16.30;13.60;;;;;;;15.16;100.00;101043.35;2764738;86;21036;-72
2021/09/02 01:40:30;;;;;;;16.52;12.95;;;;;;;15.10;100.00;101048.76;2764706;85;21080;-80
2021/09/02 01:44:32;;;;;;;16.77;12.82;;;;;;;15.06;100.00;101047.34;2764571;86;20969;-74
2021/09/02 01:48:40;;;;;;;19.57;13.60;;;;;;;15.01;100.00;101046.88;2764736;86;20981;-76
2021/09/02 01:52:42;;;;;;;15.55;12.23;;;;;;;14.95;100.00;101042.94;2744891;86;21009;-78
2021/09/02 01:56:44;;;;;;;19.02;13.18;;;;;;;14.92;100.00;101045.03;2797719;85;20995;-72
2021/09/02 02:00:46;;;;;;;21.40;13.43;;;;;;;14.88;100.00;101040.43;2751716;86;20972;-72
2021/09/02 02:04:58;;;;;;;17.00;13.22;;;;;;;14.85;100.00;101040.23;2797814;84;20948;-70
2021/09/02 02:09:00;;;;;;;13.40;11.75;;;;;;;14.81;100.00;101040.13;2751674;86;20995;-75
2021/09/02 02:13:43;;;;;;;16.67;12.60;;;;;;;14.74;100.00;101036.30;2797885;85;21031;-72
2021/09/02 02:17:46;;;;;;;18.92;14.15;;;;;;;14.66;100.00;101034.77;2751783;86;21011;-76
2021/09/02 02:21:47;;;;;;;22.32;14.80;;;;;;;14.63;100.00;101041.70;2802710;85;20987;-80
2021/09/02 02:25:56;;;;;;;14.85;11.50;;;;;;;14.60;100.00;101045.98;2804153;85;20944;-72
2021/09/02 02:29:58;;;;;;;13.95;12.10;;;;;;;14.58;100.00;101052.84;2804068;83;21002;-70
2021/09/02 02:34:01;;;;;;;16.00;12.55;;;;;;;14.55;100.00;101051.77;2804203;83;20995;-73
2021/09/02 02:38:02;;;;;;;18.15;13.55;;;;;;;14.49;100.00;101053.61;2804394;83;21014;-70
2021/09/02 02:42:08;;;;;;;20.32;13.38;;;;;;;14.36;100.00;101049.34;2804321;83;20939;-72
2021/09/02 02:46:09;;;;;;;18.40;13.80;;;;;;;14.28;100.00;101046.45;2804400;83;21026;-70
2021/09/02 02:50:11;;;;;;;19.02;14.55;;;;;;;14.28;100.00;101050.47;2804410;83;21038;-72
2021/09/02 02:54:13;;;;;;;20.15;14.70;;;;;;;14.24;100.00;101051.21;2804161;85;21041;-73
2021/09/02 02:58:15;;;;;;;16.50;13.30;;;;;;;14.26;100.00;101054.63;2804296;85;21035;-71
2021/09/02 03:02:23;;;;;;;19.17;14.20;;;;;;;14.32;100.00;101054.58;2804102;84;20979;-75
2021/09/02 03:06:24;;;;;;;15.23;11.50;;;;;;;14.35;100.00;101059.69;2804443;83;21042;-70
2021/09/02 03:10:26;;;;;;;20.17;12.93;;;;;;;14.35;100.00;101060.16;2804693;84;20967;-73
2021/09/02 03:14:50;;;;;;;22.80;14.13;;;;;;;14.35;100.00;101061.03;2804493;84;20971;-74
2021/09/02 03:19:29;;;;;;;17.50;13.28;;;;;;;14.34;100.00;101063.31;2804126;85;20974;-73
2021/09/02 03:23:30;;;;;;;13.93;12.53;;;;;;;14.35;100.00;101059.69;2804095;85;21007;-73
2021/09/02 03:27:45;;;;;;;15.53;11.60;;;;;;;14.35;100.00;101063.70;2794983;84;21004;-63
2021/09/02 03:31:47;;;;;;;18.10;13.45;;;;;;;14.39;100.00;101062.45;2744422;87;20961;-68
2021/09/02 03:35:48;;;;;;;14.98;12.33;;;;;;;14.40;100.00;101063.28;2744464;87;21008;-67
2021/09/02 03:39:50;;;;;;;20.85;13.78;;;;;;;14.40;100.00;101061.95;2744431;87;21008;-68
2021/09/02 03:43:52;;;;;;;15.68;10.43;;;;;;;14.30;100.00;101074.44;2744438;87;21008;-68
2021/09/02 03:48:42;;;;;;;18.07;12.00;;;;;;;14.20;100.00;101080.55;2775851;85;20999;-67
2021/09/02 03:52:45;;;;;;;15.40;11.30;;;;;;;14.18;100.00;101077.67;2790283;85;20945;-68
2021/09/02 03:56:47;;;;;;;13.43;12.03;;;;;;;14.11;100.00;101082.18;2790180;85;20990;-67
2021/09/02 04:00:54;;;;;;;18.15;12.98;;;;;;;14.03;100.00;101092.69;2790284;85;20968;-69
2021/09/02 04:04:56;;;;;;;17.50;12.68;;;;;;;13.96;100.00;101096.36;2790197;85;20991;-68
2021/09/02 04:08:57;;;;;;;17.05;11.85;;;;;;;13.93;100.00;101093.95;2790142;85;20994;-67
2021/09/02 04:13:00;;;;;;;14.40;11.60;;;;;;;13.90;100.00;101104.05;2790248;85;21063;-68
2021/09/02 04:17:01;;;;;;;17.92;12.00;;;;;;;13.88;100.00;101096.16;2790113;85;20976;-69
2021/09/02 04:21:04;;;;;;;14.87;11.20;;;;;;;13.91;100.00;101101.73;2796577;84;21031;-70
2021/09/02 04:25:07;;;;;;;27.80;12.93;;;;;;;13.99;100.00;101099.28;2801705;84;21008;-67
2021/09/02 04:29:09;;;;;;;17.98;13.35;;;;;;;14.05;100.00;101099.23;2801296;85;21569;-66
2021/09/02 04:33:11;;;;;;;14.28;10.72;;;;;;;14.03;100.00;101095.36;2783631;85;21036;-68
2021/09/02 04:37:13;;;;;;;15.78;13.00;;;;;;;14.08;100.00;101101.17;2784454;85;20984;-67
2021/09/02 04:41:14;;;;;;;12.93;10.50;;;;;;;14.56;100.00;101096.30;2801630;84;21000;-66
2021/09/02 04:45:21;;;;;;;14.00;10.60;;;;;;;15.10;100.00;101095.66;2802424;84;20973;-70
2021/09/02 04:49:23;;;;;;;11.15;10.05;;;;;;;15.52;100.00;101103.16;2802579;82;20988;-70
2021/09/02 04:53:25;;;;;;;12.35;10.93;;;;;;;15.82;98.31;101100.01;2802671;82;21047;-69
2021/09/02 04:57:29;;;;;;;12.30;10.93;;;;;;;16.07;97.04;101101.31;2802021;84;21015;-68
2021/09/02 05:01:30;;;;;;;13.25;10.70;;;;;;;16.30;94.99;101099.67;2801460;85;20985;-68
2021/09/02 05:05:32;;;;;;;14.03;10.23;;;;;;;16.35;94.11;101108.64;2801438;84;20979;-69
2021/09/02 05:09:34;;;;;;;12.60;9.60;;;;;;;16.38;93.75;101113.72;2801463;85;21019;-69
2021/09/02 05:13:36;;;;;;;15.48;11.88;;;;;;;16.46;93.35;101112.52;2801459;84;21020;-68
2021/09/02 05:17:48;;;;;;;13.43;11.25;;;;;;;16.57;93.23;101122.25;2801271;84;20980;-69
2021/09/02 05:21:50;;;;;;;15.10;11.93;;;;;;;16.68;92.65;101126.09;2792409;84;21004;-70
2021/09/02 05:25:52;;;;;;;12.35;10.55;;;;;;;16.82;92.58;101127.49;2788644;85;21016;-69
2021/09/02 05:30:22;;;;;;;15.35;10.32;;;;;;;17.06;92.13;101127.50;2788586;85;21044;-70
2021/09/02 05:34:23;;;;;;;12.25;9.70;;;;;;;17.30;91.90;101132.00;2788832;85;21035;-69
2021/09/02 05:38:25;;;;;;;12.33;9.90;;;;;;;17.72;92.27;101124.73;2788743;85;20965;-69
2021/09/02 05:42:38;;;;;;;14.53;10.65;;;;;;;18.19;91.88;101122.34;2788619;85;20993;-69
2021/09/02 05:46:40;;;;;;;15.50;10.18;;;;;;;18.34;88.54;101119.92;2788679;85;20933;-67
2021/09/02 05:50:42;;;;;;;14.07;10.15;;;;;;;18.30;87.44;101125.29;2788582;84;21024;-67
2021/09/02 05:54:43;;;;;;;13.10;10.35;;;;;;;18.22;87.90;101123.86;2788726;84;21012;-68
2021/09/02 05:58:45;;;;;;;16.17;11.50;;;;;;;18.11;88.31;101128.50;2788692;85;21032;-68
2021/09/02 06:02:47;;;;;;;14.40;11.78;;;;;;;18.00;88.60;101131.38;2788713;85;20992;-68
2021/09/02 06:12:10;;;;;;;16.17;12.60;;;;;;;17.88;88.96;101129.91;2788696;85;20957;-68
2021/09/02 06:16:12;;;;;;;11.80;9.85;;;;;;;17.66;88.87;101136.08;2788697;85;21060;-69
2021/09/02 06:20:36;;;;;;;12.15;10.00;;;;;;;17.51;89.11;101139.31;2788735;85;21008;-69
2021/09/02 06:24:37;;;;;;;16.02;10.45;;;;;;;17.28;89.77;101145.06;2788803;84;20992;-68
2021/09/02 06:29:11;;;;;;;16.37;12.50;;;;;;;17.25;91.86;101144.02;2788605;84;20993;-70
2021/09/02 06:33:13;;;;;;;14.47;10.48;;;;;;;17.20;90.30;101149.52;2788721;85;20988;-68
2021/09/02 06:37:15;;;;;;;14.47;10.25;;;;;;;16.99;91.77;101143.84;2789054;84;20968;-70
2021/09/02 06:41:22;;;;;;;11.43;10.23;;;;;;;17.01;92.37;101154.46;2789051;83;20997;-68
2021/09/02 06:45:24;;;;;;;15.50;10.55;;;;;;;17.00;92.29;101163.03;2788918;84;21024;-72
2021/09/02 06:49:35;;;;;;;13.75;10.72;;;;;;;17.11;92.96;101167.38;2789016;84;21012;-69
2021/09/02 06:53:37;;;;;;;18.23;12.00;;;;;;;17.23;92.78;101166.70;2788782;85;21017;-69
2021/09/02 06:57:43;;;;;;;12.55;10.88;;;;;;;17.39;92.09;101160.67;2789130;85;21000;-69
2021/09/02 07:01:46;;;;;;;14.35;11.73;;;;;;;17.56;92.10;101160.35;2788847;85;20945;-68
2021/09/02 07:06:04;;;;;;;14.83;10.65;;;;;;;17.82;92.38;101167.72;2788857;85;20993;-69
2021/09/02 07:10:08;;;;;;;13.05;10.55;;;;;;;17.99;91.81;101175.45;2788955;84;20985;-68
2021/09/02 07:14:19;;;;;;;15.55;11.03;;;;;;;18.13;90.34;101172.75;2788805;85;21024;-69
2021/09/02 07:18:20;;;;;;;15.60;11.30;;;;;;;18.27;90.57;101168.17;2788925;85;20981;-71
2021/09/02 07:22:22;;;;;;;12.85;9.75;;;;;;;18.37;88.92;101178.86;2789336;85;20989;-69
2021/09/02 07:26:33;;;;;;;15.23;10.18;;;;;;;18.39;89.08;101180.89;2788355;85;20997;-70
2021/09/02 07:30:35;;;;;;;12.55;9.75;;;;;;;18.49;88.57;101180.81;2788887;85;20973;-68
2021/09/02 07:34:37;;;;;;;14.53;10.30;;;;;;;18.54;88.39;101188.42;2788777;85;21052;-70
2021/09/02 07:38:46;;;;;;;11.78;9.60;;;;;;;18.99;89.85;101190.63;2788804;85;21016;-69
2021/09/02 07:42:47;;;;;;;10.63;8.45;;;;;;;19.51;86.47;101178.91;2789757;84;20945;-70
2021/09/02 07:46:49;;;;;;;16.30;10.25;;;;;;;19.81;85.46;101176.61;2790137;85;20972;-69
2021/09/02 07:50:51;;;;;;;13.25;10.85;;;;;;;19.82;83.09;101179.66;2789866;85;20995;-68
2021/09/02 07:55:10;;;;;;;15.50;10.05;;;;;;;19.80;82.86;101190.30;2790411;85;20972;-70
2021/09/02 07:59:12;;;;;;;13.83;9.78;;;;;;;19.74;82.66;101189.09;2772837;86;21037;-68
2021/09/02 08:03:14;;;;;;;16.05;8.45;;;;;;;19.87;83.86;101189.14;2772762;86;20976;-70
2021/09/02 08:07:15;;;;;;;13.70;8.73;;;;;;;19.82;82.31;101190.97;2772916;86;21024;-69
2021/09/02 08:11:39;;;;;;;12.75;8.65;;;;;;;19.68;83.55;101203.25;2772828;86;21019;-69
2021/09/02 08:15:41;;;;;;;11.50;8.75;;;;;;;19.71;83.06;101204.27;2773054;86;20988;-69
2021/09/02 08:19:43;;;;;;;9.03;7.40;;;;;;;19.78;82.65;101203.95;2773066;86;20995;-70
2021/09/02 08:23:45;;;;;;;9.38;6.80;;;;;;;19.86;81.96;101205.00;2761561;85;21004;-71
2021/09/02 08:28:00;;;;;;;11.80;7.67;;;;;;;19.89;82.21;101200.61;2790497;84;20921;-69
2021/09/02 08:32:03;;;;;;;8.93;6.63;;;;;;;19.90;81.89;101211.23;2790228;85;21025;-69
2021/09/02 08:36:12;;;;;;;9.73;7.62;;;;;;;20.05;83.70;101202.03;2790366;85;21193;-70
2021/09/02 08:40:20;;;;;;;13.55;9.05;;;;;;;20.13;82.12;101202.52;2790350;85;21004;-69
2021/09/02 08:44:24;;;;;;;13.88;8.55;;;;;;;20.15;82.11;101203.72;2793436;85;21008;-69
2021/09/02 08:48:47;;;;;;;12.25;7.70;;;;;;;20.22;82.07;101200.19;2790110;85;20996;-68
2021/09/02 08:52:50;;;;;;;12.98;9.83;;;;;;;20.27;82.24;101211.84;2790534;85;20997;-71
2021/09/02 08:56:53;;;;;;;13.45;7.92;;;;;;;20.22;82.92;101202.89;2790423;85;20968;-68
2021/09/02 09:00:55;;;;;;;9.35;8.40;;;;;;;20.22;81.74;101205.59;2790556;85;21036;-70
2021/09/02 09:05:10;;;;;;;12.00;8.43;;;;;;;20.28;82.74;101206.78;2790359;85;20941;-69
2021/09/02 09:09:24;;;;;;;9.10;8.08;;;;;;;20.38;82.67;101203.39;2789034;85;20981;-69
2021/09/02 09:13:29;;;;;;;9.58;7.87;;;;;;;20.43;83.18;101203.39;2746364;86;20992;-70
2021/09/02 09:17:31;;;;;;;;;;;;;;;20.75;83.99;101190.88;2748940;86;20937;-68
2021/09/02 09:21:33;;;;;;;10.90;7.75;;;;;;;21.06;81.86;101193.72;2746367;86;20113;-70
2021/09/02 09:25:35;;;;;;;15.03;7.62;;;;;;;21.18;81.26;101194.19;2746529;86;21419;-70
2021/09/02 09:30:09;;;;;;;13.25;7.35;;;;;;;21.36;79.94;101187.70;2746640;86;21020;-71
2021/09/02 09:34:11;;;;;;;15.72;6.37;;;;;;;21.27;78.99;101200.42;2745356;85;21494;-68
2021/09/02 09:38:19;;;;;;;11.05;7.78;;;;;;;21.20;78.79;101194.86;2745936;86;20976;-68
2021/09/02 09:42:20;;;;;;;8.28;6.97;;;;;;;21.25;78.61;101206.02;2747090;86;20984;-70
2021/09/02 09:46:31;;;;;;;8.43;7.37;;;;;;;21.24;77.55;101204.34;2746599;86;20988;-69
2021/09/02 09:50:33;;;;;;;8.15;6.15;;;;;;;21.30;79.07;101203.30;2746790;86;20965;-70
2021/09/02 09:55:02;;;;;;;12.73;7.20;;;;;;;21.41;78.20;101192.08;2746694;85;21008;-70
2021/09/02 09:59:05;;;;;;;8.78;7.15;;;;;;;21.56;78.29;101196.27;2746227;86;21004;-72
2021/09/02 10:03:30;;;;;;;8.20;6.45;;;;;;;21.78;76.94;101207.34;2746804;85;21020;-72
2021/09/02 10:07:34;;;;;;;6.70;6.10;;;;;;;21.85;74.12;101196.66;2746755;86;20968;-72
2021/09/02 10:11:42;;;;;;;6.55;5.85;;;;;;;21.99;75.59;101204.52;2747267;84;21005;-71
2021/09/02 10:15:44;;;;;;;7.00;5.80;;;;;;;21.96;74.28;101195.73;2746750;84;21024;-71
2021/09/02 10:19:47;;;;;;;7.30;5.78;;;;;;;21.95;74.81;101198.11;2746855;86;20945;-72
2021/09/02 10:23:49;;;;;;;10.23;4.72;;;;;;;22.05;75.10;101191.59;2749262;84;21000;-72
2021/09/02 10:28:09;;;;;;;5.95;4.92;;;;;;;22.24;72.99;101194.36;2746772;86;21000;-72
2021/09/02 10:32:28;;;;;;;6.55;5.80;;;;;;;22.47;72.20;101188.92;2746360;86;20993;-72
2021/09/02 10:36:43;;;;;;;5.22;4.10;;;;;;;22.62;71.37;101187.63;2745805;86;20988;-72
2021/09/02 10:40:48;;;;;;;5.43;4.00;;;;;;;22.60;68.51;101188.83;2746818;83;20976;-71
2021/09/02 10:44:50;;;;;;;6.33;5.47;;;;;;;22.57;68.02;101191.38;2746669;86;20996;-71
2021/09/02 10:48:52;;;;;;;7.62;5.47;;;;;;;22.55;68.39;101181.23;2746579;86;21031;-71
2021/09/02 10:53:25;;;;;;;6.05;5.10;;;;;;;22.51;69.83;101184.85;2747032;86;20953;-70
2021/09/02 10:57:32;;;;;;;5.40;4.15;;;;;;;22.56;68.96;101184.80;2746429;86;20976;-71
2021/09/02 11:01:39;;;;;;;5.25;3.77;;;;;;;22.53;68.84;101184.65;2745814;86;21556;-69
2021/09/02 11:05:49;;;;;;;7.87;4.50;;;;;;;22.57;68.64;101179.72;2746542;86;21024;-70
2021/09/02 11:09:51;;;;;;;7.17;4.22;;;;;;;22.65;69.44;101177.77;2745491;86;20985;-69
2021/09/02 11:13:54;;;;;;;5.20;4.37;;;;;;;22.75;68.31;101172.58;2746519;86;20948;-70
2021/09/02 11:18:01;;;;;;;4.80;3.80;;;;;;;22.81;69.47;101171.86;2746622;86;21051;-70
2021/09/02 11:22:11;;;;;;;5.85;4.85;;;;;;;23.02;68.36;101176.53;2746449;86;20984;-71
2021/09/02 11:26:42;;;;;;;5.33;3.40;;;;;;;23.19;67.83;101181.27;2746589;85;20949;-71
2021/09/02 11:30:44;;;;;;;3.58;3.20;;;;;;;23.35;64.54;101181.61;2746537;86;21059;-72
2021/09/02 11:35:33;;;;;;;4.58;3.83;;;;;;;23.36;63.84;101172.44;2746790;86;21048;-71
2021/09/02 11:39:39;;;;;;;5.67;3.67;;;;;;;23.42;61.05;101171.34;2746769;86;21059;-71
2021/09/02 11:43:41;;;;;;;4.37;3.27;;;;;;;23.60;58.56;101180.45;2747303;86;20972;-71
2021/09/02 11:47:48;;;;;;;3.20;2.90;;;;;;;23.64;56.90;101180.39;2747212;86;20996;-71
2021/09/02 11:51:54;;;;;;;8.08;4.15;;;;;;;23.64;58.04;101175.79;2747303;86;21048;-70
2021/09/02 11:56:37;;;;;;;5.47;3.40;;;;;;;23.80;59.26;101170.66;2746968;86;21540;-70
2021/09/02 12:00:39;;;;;;;4.15;3.37;;;;;;;23.94;58.89;101158.55;2746967;86;20945;-69
2021/09/02 12:05:38;;;;;;;6.42;3.58;;;;;;;24.10;58.27;101155.61;2746191;86;20949;-70
2021/09/02 12:09:44;;;;;;;5.35;2.55;;;;;;;24.18;58.47;101156.54;2746910;86;21483;-70
2021/09/02 12:13:57;;;;;;;5.75;2.83;;;;;;;24.30;57.58;101152.77;2746749;86;21032;-69
2021/09/02 12:18:11;;;;;;;5.50;3.40;;;;;;;24.41;57.15;101144.59;2735366;86;21007;-69
2021/09/02 12:22:25;;;;;;;4.70;2.90;;;;;;;24.44;57.31;101151.81;2746816;86;20976;-70
2021/09/02 12:27:03;;;;;;;4.75;2.45;;;;;;;24.47;56.45;101151.95;2746767;86;21005;-70
2021/09/02 12:36:16;;;;;;;3.70;2.85;;;;;;;24.72;54.93;101144.70;2745980;86;21012;-69
2021/09/02 12:40:22;;;;;;;7.97;3.62;;;;;;;24.79;56.61;101138.83;2746808;87;21008;-69
2021/09/02 12:44:32;;;;;;;3.72;3.40;;;;;;;24.78;55.32;101133.89;2746742;87;21000;-72
2021/09/02 12:48:34;;;;;;;6.50;3.08;;;;;;;24.88;54.84;101132.17;2746513;87;20992;-70
2021/09/02 12:52:42;;;;;;;4.72;3.02;;;;;;;25.04;56.17;101127.45;2746615;87;20988;-67
2021/09/02 12:56:44;;;;;;;5.05;3.25;;;;;;;25.14;54.99;101121.63;2804654;85;21063;-68
2021/09/02 13:00:50;;;;;;;5.83;3.25;;;;;;;25.12;55.78;101123.18;2746632;87;20996;-68
2021/09/02 13:04:52;;;;;;;4.87;3.35;;;;;;;25.06;56.67;101111.75;2804624;85;20996;-68
2021/09/02 13:08:54;;;;;;;5.10;3.22;;;;;;;24.75;56.09;101107.09;2746866;85;21052;-67
2021/09/02 13:13:03;;;;;;;4.30;3.27;;;;;;;24.85;55.85;101109.45;2804845;85;21008;-67
2021/09/02 13:17:05;;;;;;;6.10;2.85;;;;;;;24.79;56.17;101104.83;2746114;86;21032;-68
2021/09/02 13:21:07;;;;;;;4.37;2.95;;;;;;;24.74;56.15;101105.89;2804424;83;20987;-72
2021/09/02 13:25:11;;;;;;;6.45;4.17;;;;;;;24.74;54.98;101108.61;2792214;82;21013;-69
2021/09/02 13:29:13;;;;;;;4.53;3.70;;;;;;;24.64;56.08;101102.17;2763914;86;21048;-69
2021/09/02 13:33:14;;;;;;;4.33;2.92;;;;;;;24.66;56.63;101098.73;2764122;85;21489;-67
2021/09/02 13:37:16;;;;;;;8.70;3.30;;;;;;;24.76;55.92;101097.89;2763721;86;21037;-67
2021/09/02 13:41:18;;;;;;;6.08;3.83;;;;;;;24.82;54.73;101098.98;2789903;84;20976;-65
2021/09/02 13:45:20;;;;;;;7.95;4.20;;;;;;;24.84;56.72;101100.97;2789151;85;20972;-67
2021/09/02 13:49:51;;;;;;;5.70;3.87;;;;;;;24.99;56.21;101101.37;2788733;85;21019;-65
2021/09/02 13:53:53;;;;;;;4.33;3.70;;;;;;;25.06;55.34;101081.31;2789064;85;21027;-65
2021/09/02 13:57:59;;;;;;;4.80;3.55;;;;;;;25.13;55.79;101090.84;2792083;85;21000;-67
2021/09/02 14:02:00;;;;;;;6.87;4.45;;;;;;;25.37;55.97;101079.11;2789023;85;21044;-66
2021/09/02 14:06:02;;;;;;;7.12;4.25;;;;;;;25.38;55.42;101083.51;2746383;87;20991;-66
2021/09/02 14:10:05;;;;;;;4.35;3.50;;;;;;;25.04;55.35;101074.37;2789258;85;21019;-71
2021/09/02 14:14:07;;;;;;;5.08;3.22;;;;;;;24.78;55.61;101077.30;2767250;86;20969;-66
2021/09/02 14:18:09;;;;;;;5.50;3.67;;;;;;;24.66;56.51;101081.91;2767439;85;20997;-66
2021/09/02 14:22:11;;;;;;;4.70;2.92;;;;;;;24.59;56.38;101082.39;2789212;85;21000;-66
2021/09/02 14:26:30;;;;;;;3.98;3.40;;;;;;;24.67;55.74;101075.42;2730065;86;21003;-65
2021/09/02 14:30:32;;;;;;;6.33;4.08;;;;;;;24.80;55.37;101073.32;2729263;87;21503;-66
2021/09/02 14:34:34;;;;;;;5.72;4.42;;;;;;;24.75;55.99;101068.13;2721723;87;21002;-68
2021/09/02 14:38:36;;;;;;;7.55;3.58;;;;;;;24.79;56.36;101070.28;2721670;87;21030;-68
2021/09/02 14:42:37;;;;;;;3.15;2.80;;;;;;;24.91;55.90;101065.10;2721619;87;20999;-66
2021/09/02 14:46:50;;;;;;;3.25;2.95;;;;;;;24.98;54.71;101069.22;2721502;87;21011;-65
2021/09/02 14:50:53;;;;;;;4.75;3.37;;;;;;;24.87;54.96;101055.67;2721242;87;20971;-65
2021/09/02 14:54:55;;;;;;;4.45;4.03;;;;;;;24.78;56.49;101054.17;2721426;86;21030;-65
2021/09/02 14:58:57;;;;;;;5.80;3.92;;;;;;;24.57;56.26;101050.48;2721577;87;21029;-66
2021/09/02 15:02:59;;;;;;;4.75;4.10;;;;;;;24.51;57.31;101051.27;2721747;87;21057;-65
2021/09/02 15:07:00;;;;;;;5.72;4.33;;;;;;;24.59;56.89;101051.12;2721675;87;21010;-65
2021/09/02 15:11:18;;;;;;;5.55;3.75;;;;;;;24.51;55.35;101044.46;2721588;87;20987;-66
2021/09/02 15:15:20;;;;;;;5.35;4.00;;;;;;;24.51;56.16;101045.83;2789761;84;21465;-68
2021/09/02 15:19:22;;;;;;;6.03;4.30;;;;;;;24.47;56.11;101039.11;2821992;84;21001;-66
2021/09/02 15:23:24;;;;;;;5.05;3.50;;;;;;;24.44;56.72;101038.16;2821814;83;21029;-66
2021/09/02 15:27:25;;;;;;;5.15;3.90;;;;;;;24.46;55.93;101033.36;2820911;84;21034;-66
2021/09/02 15:31:37;;;;;;;6.60;3.72;;;;;;;24.56;56.26;101034.36;2821906;83;20959;-65
2021/09/02 15:35:39;;;;;;;6.00;3.55;;;;;;;24.59;55.53;101028.00;2822031;84;20974;-67
2021/09/02 15:39:41;;;;;;;5.55;3.92;;;;;;;24.59;55.79;101036.66;2822045;83;21006;-66
2021/09/02 15:43:42;;;;;;;7.15;4.50;;;;;;;24.60;56.46;101029.68;2822191;84;21045;-67
2021/09/02 15:47:58;;;;;;;3.98;3.22;;;;;;;24.61;57.15;101028.64;2821604;84;35566;-67
2021/09/02 15:52:00;;;;;;;4.62;3.27;;;;;;;24.53;56.46;101027.42;2822166;83;21034;-67
2021/09/02 15:56:15;;;;;;;4.62;3.92;;;;;;;24.43;56.83;101018.80;2822120;84;21592;-68
2021/09/02 16:00:17;;;;;;;5.65;4.15;;;;;;;24.28;56.38;101019.76;2822045;84;21022;-66
2021/09/02 16:04:19;;;;;;;3.77;2.67;;;;;;;24.16;56.98;101015.90;2821999;84;20955;-66
2021/09/02 16:08:21;;;;;;;4.15;3.00;;;;;;;24.12;57.60;101011.91;2821966;83;20998;-67
2021/09/02 16:12:55;;;;;;;4.72;4.15;;;;;;;24.07;59.03;101007.91;2821858;84;20994;-67
2021/09/02 16:16:57;;;;;;;4.28;3.52;;;;;;;24.04;59.40;101008.31;2821943;83;20963;-66
2021/09/02 16:21:43;;;;;;;4.10;3.47;;;;;;;24.01;58.92;100999.67;2821478;83;21018;-67
2021/09/02 16:25:45;;;;;;;4.75;3.40;;;;;;;23.91;58.78;100996.80;2805781;83;20969;-67
2021/09/02 16:29:57;;;;;;;3.70;2.90;;;;;;;23.76;59.20;101009.09;2806226;83;21032;-66
2021/09/02 16:33:58;;;;;;;5.20;3.40;;;;;;;23.60;60.17;101008.03;2751464;86;20985;-66
2021/09/02 16:38:08;;;;;;;5.15;3.33;;;;;;;23.52;60.11;101001.67;2797398;83;21012;-65
2021/09/02 16:42:27;;;;;;;4.92;3.72;;;;;;;23.44;60.50;100991.47;2797442;84;20941;-66
2021/09/02 16:46:29;;;;;;;5.28;3.75;;;;;;;23.33;61.72;100995.53;2797453;84;20977;-67
2021/09/02 16:50:31;;;;;;;9.68;3.72;;;;;;;23.19;62.96;100991.31;2797378;85;20996;-66
2021/09/02 16:54:33;;;;;;;5.87;3.33;;;;;;;23.08;62.90;100982.31;2797331;84;20969;-66
2021/09/02 16:58:53;;;;;;;3.85;3.12;;;;;;;23.01;63.15;100985.48;2797326;85;20984;-66
2021/09/02 17:02:55;;;;;;;5.42;3.95;;;;;;;22.89;63.63;100985.96;2797348;85;20985;-66
2021/09/02 17:06:56;;;;;;;6.20;5.30;;;;;;;22.73;64.45;100982.11;2797430;84;21028;-66
2021/09/02 17:10:58;;;;;;;7.28;4.50;;;;;;;22.60;65.01;100989.06;2797499;85;21012;-66
2021/09/02 17:15:00;;;;;;;8.68;4.42;;;;;;;22.47;65.51;100981.56;2797358;84;21004;-66
2021/09/02 17:19:02;;;;;;;5.95;4.35;;;;;;;22.32;66.63;100994.27;2797405;85;21044;-65
2021/09/02 17:23:21;;;;;;;7.80;4.80;;;;;;;22.11;67.38;101002.09;2777992;85;20993;-66
2021/09/02 17:27:24;;;;;;;4.53;3.55;;;;;;;21.88;68.32;101004.84;2776127;85;20997;-65
2021/09/02 17:31:25;;;;;;;3.95;3.58;;;;;;;21.62;69.60;101003.34;2770627;86;21089;-67
2021/09/02 17:35:27;;;;;;;6.00;3.83;;;;;;;21.39;70.61;101001.98;2770547;86;21057;-66
2021/09/02 17:39:30;;;;;;;5.67;4.10;;;;;;;21.23;71.38;100999.75;2770620;86;20982;-66
2021/09/02 17:43:32;;;;;;;6.35;5.05;;;;;;;21.12;71.60;100996.08;2770682;86;21024;-66
2021/09/02 17:47:34;;;;;;;5.17;4.05;;;;;;;21.01;71.89;100997.83;2770616;86;20990;-66
2021/09/02 17:51:35;;;;;;;6.87;4.90;;;;;;;20.93;73.49;101003.63;2742477;85;21228;-67
2021/09/02 17:55:38;;;;;;;5.20;4.67;;;;;;;20.66;75.04;101004.40;2773240;86;21013;-66
2021/09/02 17:59:40;;;;;;;9.28;4.60;;;;;;;20.45;76.83;101012.25;2773230;84;21029;-66
2021/09/02 18:03:48;;;;;;;7.08;4.62;;;;;;;20.24;78.03;101018.53;2773080;86;20998;-66
2021/09/02 18:07:50;;;;;;;8.30;5.17;;;;;;;20.14;79.23;101017.86;2772858;86;20994;-66
2021/09/02 18:11:52;;;;;;;8.45;5.28;;;;;;;20.04;80.06;101023.44;2772936;86;21046;-66
2021/09/02 18:15:54;;;;;;;11.28;6.75;;;;;;;19.94;80.32;101013.34;2772883;85;21078;-67
2021/09/02 18:19:56;;;;;;;9.15;6.55;;;;;;;19.88;81.28;101019.39;2790423;84;20945;-67
2021/09/02 18:24:07;;;;;;;9.25;6.83;;;;;;;19.75;81.78;101027.97;2790255;85;21067;-66
2021/09/02 18:28:09;;;;;;;7.92;6.40;;;;;;;19.64;82.18;101019.70;2789094;85;20992;-66
2021/09/02 18:32:11;;;;;;;9.10;5.87;;;;;;;19.50;82.49;101024.77;2789215;85;21027;-66
2021/09/02 18:36:19;;;;;;;7.60;5.22;;;;;;;19.38;82.73;101026.09;2788930;85;21029;-65
2021/09/02 18:40:21;;;;;;;7.40;4.45;;;;;;;19.29;82.88;101029.28;2789023;85;21015;-66
2021/09/02 18:44:24;;;;;;;11.80;6.00;;;;;;;19.18;83.20;101025.04;2788836;85;21043;-65
2021/09/02 18:48:26;;;;;;;7.87;6.37;;;;;;;19.05;83.61;101026.00;2788869;85;20971;-65
2021/09/02 18:52:29;;;;;;;10.75;7.42;;;;;;;19.01;83.83;101030.04;2740959;87;20972;-66
2021/09/02 18:56:31;;;;;;;10.00;6.53;;;;;;;18.84;84.25;101025.90;2759787;86;20950;-65
2021/09/02 19:00:44;;;;;;;10.53;7.25;;;;;;;18.73;84.64;101031.59;2788951;85;20983;-66
2021/09/02 19:04:50;;;;;;;8.70;5.70;;;;;;;18.62;84.85;101034.90;2759991;86;21041;-66
2021/09/02 19:08:57;;;;;;;9.18;7.25;;;;;;;18.41;85.47;101033.44;2789301;85;20980;-65
2021/09/02 19:13:02;;;;;;;7.50;5.62;;;;;;;18.28;86.03;101039.78;2788919;85;20996;-66
2021/09/02 19:17:04;;;;;;;6.12;5.05;;;;;;;18.31;86.07;101031.38;2789193;85;20920;-65
2021/09/02 19:21:09;;;;;;;6.55;5.87;;;;;;;18.38;85.84;101031.07;2760137;86;21021;-65
2021/09/02 19:25:11;;;;;;;7.75;6.40;;;;;;;18.46;85.42;101031.62;2789253;85;21003;-65
2021/09/02 19:29:15;;;;;;;10.28;5.90;;;;;;;18.50;84.78;101027.59;2744062;86;21056;-65
2021/09/02 19:33:19;;;;;;;9.18;6.97;;;;;;;18.35;84.86;101027.35;2792264;85;21020;-66
2021/09/02 19:37:21;;;;;;;7.87;5.55;;;;;;;18.16;85.73;101030.25;2804612;85;21106;-65
2021/09/02 19:41:24;;;;;;;8.33;5.92;;;;;;;18.01;86.70;101026.75;2792521;85;21051;-65
2021/09/02 19:45:26;;;;;;;12.30;6.60;;;;;;;17.91;87.37;101028.70;2804651;84;20967;-65
2021/09/02 19:49:42;;;;;;;8.70;6.65;;;;;;;17.85;87.78;101029.64;2792461;85;21016;-65
2021/09/02 19:53:44;;;;;;;6.45;5.40;;;;;;;17.85;87.83;101029.64;2804876;84;20991;-65
2021/09/02 19:58:01;;;;;;;8.15;6.28;;;;;;;17.87;87.31;101029.99;2792509;85;21004;-65
2021/09/02 20:02:04;;;;;;;;;;;;;;;17.91;87.09;101028.19;2807320;84;21003;-65
2021/09/02 20:06:11;;;;;;;8.30;6.33;;;;;;;17.99;86.71;101025.58;2804914;85;20076;-66
2021/09/02 20:10:13;;;;;;;8.25;6.47;;;;;;;18.01;86.31;101028.09;2781138;85;21028;-65
2021/09/02 20:14:16;;;;;;;7.25;6.22;;;;;;;18.04;86.08;101019.73;2792566;85;20949;-65